Data for 05/26/2013

Time Sea-Level Adjusted Pressure Absolute Pressure Temperature Relative Humidity Dew Point   
(mb) (inHg) (mb) (inHg) (C) (F) (%) (C) (F)
00:05 1017 30.03 847 25.01 8.4 47 66 2.4 36.3
00:10 1017 30.03 847 25.01 8 46.5 69 2.8 37
00:15 1017 30.03 847 25.01 7.3 45.2 70 2.1 35.8
00:20 1017 30.03 847 25.01 7.5 45.6 68 2 35.7
00:25 1017 30.03 847 25.01 7.8 46 68 2.2 35.9
00:30 1017 30.03 847 25.01 7.7 45.9 69 2.4 36.3
00:35 1017 30.03 846 24.98 7.6 45.6 69 2.3 36.2
00:40 1017 30.03 846 24.98 7.5 45.6 69 2.3 36.1
00:45 1017 30.03 846 24.98 7.5 45.5 70 2.4 36.3
00:50 1017 30.03 846 24.98 7.4 45.3 70 2.3 36.2
00:55 1017 30.03 846 24.98 7.4 45.2 70 2.3 36.1
01:00 1017 30.03 846 24.98 7.3 45.2 71 2.4 36.3
01:05 1017 30.03 846 24.98 7.2 45 72 2.4 36.3
01:10 1017 30.03 846 24.98 7.1 44.8 72 2.4 36.3
01:15 1017 30.03 846 24.98 7 44.6 72 2.3 36.2
01:20 1017 30.03 846 24.98 6.9 44.5 72 2.3 36.1
01:25 1017 30.03 846 24.98 7 44.6 72 2.2 36
01:30 1017 30.03 846 24.98 7 44.6 72 2.2 36
01:35 1017 30.03 846 24.98 7 44.6 71 2.2 35.9
01:40 1017 30.03 846 24.98 7.1 44.7 71 2.2 36
01:45 1017 30.03 846 24.98 7.1 44.7 71 2.3 36.1
01:50 1017 30.03 846 24.98 6.9 44.4 72 2.2 35.9
01:55 1017 30.03 846 24.98 6.8 44.2 72 2 35.6
02:00 1017 30.03 846 24.98 6.8 44.3 71 2 35.6
02:05 1017 30.03 846 24.98 7 44.5 70 1.9 35.4
02:10 1017 30.03 846 24.98 7.1 44.8 69 1.8 35.2
02:15 1017 30.03 846 24.98 7.3 45.1 68 1.8 35.3
02:20 1017 30.03 846 24.98 7.1 44.8 69 1.9 35.4
02:25 1017 30.03 846 24.98 7 44.5 70 1.9 35.3
02:30 1017 30.03 846 24.98 6.8 44.2 70 1.8 35.2
02:35 1017 30.03 846 24.98 6.7 44.1 71 1.8 35.3
02:40 1017 30.03 846 24.98 6.7 44.1 71 1.8 35.3
02:45 1017 30.03 846 24.98 6.7 44.1 70 1.7 35.1
02:50 1017 30.03 846 24.98 6.8 44.3 69 1.6 34.9
02:55 1017 30.03 846 24.98 6.8 44.2 70 1.7 35
03:00 1017 30.03 846 24.98 6.7 44.1 70 1.6 34.8
03:05 1017 30.03 846 24.98 6.6 43.9 70 1.6 34.8
03:10 1017 30.03 846 24.98 6.2 43.2 72 1.5 34.7
03:15 1017 30.03 846 24.98 5.9 42.7 73 1.5 34.7
03:20 1017 30.03 846 24.98 5.6 42.1 74 1.4 34.5
03:25 1017 30.03 846 24.98 5.8 42.4 73 1.3 34.4
03:30 1017 30.03 846 24.98 5.9 42.6 73 1.4 34.5
03:35 1017 30.03 846 24.98 5.9 42.7 72 1.3 34.3
03:40 1017 30.03 846 24.98 6.2 43.2 70 1.2 34.1
03:45 1017 30.03 846 24.98 6.1 43 74 1.8 35.2
03:50 1017 30.03 846 24.98 5.5 41.9 73 1 33.9
03:55 1017 30.03 846 24.98 6 42.8 71 1.2 34.1
04:00 1017 30.03 846 24.98 6.1 42.9 72 1.4 34.6
04:05 1017 30.03 846 24.98 5.8 42.4 72 1.1 33.9
04:10 1017 30.03 846 24.98 5.8 42.5 72 1.3 34.3
04:15 1017 30.03 847 25.01 5.7 42.2 73 1.2 34.1
04:20 1017 30.03 846 24.98 5.8 42.5 72 1.3 34.3
04:25 1017 30.03 846 24.98 5.7 42.2 71 0.9 33.6
04:30 1017 30.03 846 24.98 5.9 42.6 72 1.3 34.3
04:35 1017 30.03 847 25.01 5.5 41.9 74 1.2 34.2
04:40 1017 30.03 847 25.01 5.4 41.8 74 1.1 34
04:45 1017 30.03 847 25.01 5.5 41.9 75 1.4 34.5
04:50 1017 30.03 847 25.01 5.2 41.3 74 0.9 33.7
04:55 1017 30.03 847 25.01 5.3 41.5 75 1.1 34.1
05:00 1017 30.03 846 24.98 5.1 41.1 76 1.2 34.2
05:05 1017 30.03 846 24.98 4.7 40.5 78 1.2 34.2
05:10 1017 30.03 846 24.98 4.7 40.5 78 1.1 34
05:15 1017 30.03 846 24.98 4.6 40.4 78 1.1 33.9
05:20 1017 30.03 846 24.98 5.1 41.2 74 0.9 33.7
05:25 1017 30.03 847 25.01 5.2 41.4 75 1.3 34.3
05:30 1017 30.03 847 25.01 5.1 41.1 76 1.2 34.2
05:35 1017 30.03 847 25.01 4.9 40.8 77 1.3 34.3
05:40 1017 30.03 847 25.01 4.8 40.7 78 1.3 34.3
05:45 1017 30.03 847 25.01 4.7 40.5 79 1.3 34.4
05:50 1017 30.03 846 24.98 4.5 40.1 80 1.3 34.3
05:55 1017 30.03 847 25.01 4.5 40.2 79 1.2 34.2
06:00 1017 30.03 847 25.01 4.7 40.4 79 1.3 34.3
06:05 1017 30.03 847 25.01 4.9 40.7 78 1.3 34.4
06:10 1017 30.03 847 25.01 5.1 41.1 77 1.4 34.6
06:15 1017 30.03 846 24.98 5.1 41.1 78 1.5 34.7
06:20 1017 30.03 846 24.98 5.2 41.4 77 1.6 34.8
06:25 1017 30.03 846 24.98 5.7 42.2 76 1.7 35
06:30 1017 30.03 846 24.98 6.3 43.3 74 1.9 35.5
06:35 1017 30.03 846 24.98 6.9 44.4 71 2 35.7
06:40 1017 30.03 846 24.98 7.4 45.2 71 2.4 36.3
06:45 1017 30.03 846 24.98 7.6 45.8 70 2.4 36.4
06:50 1017 30.03 846 24.98 7.7 45.9 68 2.2 36
06:55 1017 30.03 846 24.98 8.2 46.8 66 2.3 36.2
07:00 1017 30.03 846 24.98 8.6 47.6 65 2.4 36.3
07:05 1017 30.03 846 24.98 8.7 47.7 66 2.7 36.9
07:10 1017 30.03 846 24.98 8.7 47.7 65 2.5 36.4
07:15 1017 30.03 846 24.98 9.1 48.4 62 2.3 36.2
07:20 1017 30.03 846 24.98 9.7 49.4 61 2.6 36.6
07:25 1017 30.03 846 24.98 10 49.9 60 2.5 36.6
07:30 1017 30.03 846 24.98 9.9 49.9 60 2.7 36.8
07:35 1017 30.03 846 24.98 9.9 49.9 60 2.5 36.5
07:40 1017 30.03 846 24.98 10.5 50.8 58 2.6 36.6
07:45 1017 30.03 846 24.98 10.8 51.4 57 2.7 36.8
07:50 1017 30.03 846 24.98 11.3 52.4 54 2.3 36.2
07:55 1017 30.03 846 24.98 12.4 54.4 52 2.8 37.1
08:00 1017 30.03 846 24.98 12.9 55.3 51 3.1 37.5
08:05 1017 30.03 846 24.98 13 55.4 51 3.2 37.7
08:10 1017 30.03 846 24.98 12.9 55.3 52 3.4 38.1
08:15 1017 30.03 846 24.98 12.9 55.1 52 3.2 37.8
08:20 1017 30.03 846 24.98 12.7 54.8 51 2.8 37
08:25 1017 30.03 846 24.98 12.1 53.7 54 3.2 37.8
08:30 1017 30.03 846 24.98 12.4 54.3 53 3.2 37.8
08:35 1017 30.03 846 24.98 12.3 54.2 55 3.6 38.4
08:40 1017 30.03 846 24.98 12.9 55.2 53 3.5 38.3
08:45 1017 30.03 846 24.98 13.1 55.6 51 3.4 38.2
08:50 1017 30.03 846 24.98 13.4 56.1 51 3.6 38.6
08:55 1017 30.03 846 24.98 13.6 56.5 53 4.2 39.6
09:00 1017 30.03 846 24.98 13.7 56.6 51 3.8 38.9
09:05 1017 30.03 846 24.98 13.6 56.5 49 3.3 38
09:10 1016 30 846 24.98 13.7 56.6 52 4 39.3
09:15 1016 30 846 24.98 13.9 57 49 3.4 38.2
09:20 1016 30 846 24.98 14.7 58.5 47 3.6 38.5
09:25 1016 30 846 24.98 15.1 59.2 47 4.1 39.3
09:30 1016 30 846 24.98 13.7 56.6 52 4.2 39.5
09:35 1016 30 846 24.98 14.1 57.5 50 3.8 38.9
09:40 1016 30 846 24.98 14.3 57.7 51 4.3 39.8
09:45 1016 30 846 24.98 14.6 58.2 50 4.4 39.8
09:50 1016 30 846 24.98 14.8 58.7 48 4 39.2
09:55 1016 30 846 24.98 15 59 48 4.1 39.3
10:00 1016 30 846 24.98 14.4 57.8 51 4.3 39.8
10:05 1016 30 845 24.95 14.5 58.1 49 4 39.3
10:10 1016 30 845 24.95 14.3 57.8 50 4.1 39.4
10:15 1016 30 845 24.95 14.5 58.1 50 4.3 39.7
10:20 1016 30 845 24.95 14.2 57.6 49 3.8 38.9
10:25 1016 30 845 24.95 14.1 57.3 51 4.2 39.5
10:30 1016 30 845 24.95 14.4 57.9 51 4.4 39.9
10:35 1016 30 845 24.95 14.7 58.5 49 4.3 39.8
10:40 1016 30 845 24.95 14.6 58.2 50 4.2 39.6
10:45 1016 30 845 24.95 14.6 58.4 50 4.4 39.9
10:50 1016 30 845 24.95 14.6 58.2 51 4.5 40.1
10:55 1016 30 845 24.95 14.7 58.5 51 4.7 40.5
11:00 1016 30 845 24.95 14.7 58.5 49 4.3 39.7
11:05 1016 30 845 24.95 15.1 59.2 48 4.2 39.6
11:10 1016 30 845 24.95 15 59 51 5.1 41.1
11:15 1016 30 845 24.95 14.1 57.3 50 3.8 38.8
11:20 1016 30 845 24.95 14.8 58.6 48 3.9 39
11:25 1016 30 845 24.95 15 58.9 47 3.8 38.9
11:30 1016 30 845 24.95 15.2 59.4 47 4.1 39.3
11:35 1016 30 845 24.95 15.4 59.7 46 4.1 39.3
11:40 1016 30 845 24.95 15.7 60.3 46 4.4 39.9
11:45 1016 30 845 24.95 15.7 60.3 45 4 39.3
11:50 1016 30 845 24.95 15.5 59.8 46 4.1 39.3
11:55 1016 30 845 24.95 15.3 59.5 47 4.1 39.4
12:00 1016 30 845 24.95 15.6 60 45 3.8 38.9
12:05 1016 30 845 24.95 15.7 60.3 46 4.2 39.6
12:10 1016 30 845 24.95 15.4 59.6 47 4.2 39.6
12:15 1016 30 845 24.95 15.5 59.9 47 4.4 40
12:20 1016 30 845 24.95 14.7 58.4 49 4.3 39.7
12:25 1016 30 845 24.95 15.5 59.9 47 4.2 39.6
12:30 1016 30 845 24.95 16.7 62 42 3.9 39.1
12:35 1016 30 845 24.95 16.6 61.9 46 5 41
12:40 1016 30 845 24.95 15.8 60.4 47 4.4 40
12:45 1016 30 845 24.95 16 60.9 44 4 39.3
12:50 1016 30 845 24.95 16.4 61.4 47 5 41
12:55 1015 29.97 845 24.95 16.4 61.6 45 4.5 40.1
13:00 1015 29.97 845 24.95 17.1 62.8 42 4.1 39.5
13:05 1015 29.97 845 24.95 16.8 62.3 43 4.2 39.6
13:10 1015 29.97 844 24.92 17.5 63.5 42 4.5 40.1
13:15 1015 29.97 844 24.92 17.3 63.2 43 4.7 40.4
13:20 1015 29.97 844 24.92 16.4 61.6 45 4.5 40.1
13:25 1015 29.97 844 24.92 16.6 61.8 44 4.5 40.1
13:30 1015 29.97 844 24.92 16.8 62.2 43 4.3 39.7
13:35 1015 29.97 844 24.92 16.8 62.2 44 4.5 40
13:40 1015 29.97 845 24.95 16.4 61.6 44 4.2 39.5
13:45 1015 29.97 845 24.95 16.3 61.3 45 4.6 40.2
13:50 1015 29.97 845 24.95 16.7 62 42 3.9 39
13:55 1015 29.97 845 24.95 17.2 62.9 41 4.1 39.3
14:00 1015 29.97 844 24.92 17.5 63.6 39 3.7 38.6
14:05 1015 29.97 844 24.92 18.1 64.6 39 4 39.2
14:10 1015 29.97 844 24.92 18.6 65.4 38 4.2 39.6
14:15 1015 29.97 844 24.92 18 64.4 41 4.8 40.6
14:20 1015 29.97 844 24.92 17.8 64.1 31 0.4 32.7
14:25 1015 29.97 844 24.92 17.9 64.2 29 -0.3 31.5
14:30 1015 29.97 844 24.92 18.2 64.8 29 0.1 32.2
14:35 1015 29.97 844 24.92 18.2 64.8 29 0.2 32.4
14:40 1015 29.97 844 24.92 17.9 64.2 31 0.7 33.2
14:45 1015 29.97 844 24.92 17.4 63.3 34 1.4 34.5
14:50 1015 29.97 844 24.92 17.1 62.8 32 0.5 33
14:55 1015 29.97 844 24.92 16.8 62.2 35 1.5 34.6
15:00 1015 29.97 845 24.95 16.4 61.5 37 1.7 35.1
15:05 1015 29.97 845 24.95 15.6 60 43 3.2 37.7
15:10 1016 30 845 24.95 14 57.1 52 4.3 39.8
15:15 1016 30 845 24.95 13.1 55.5 60 5.4 41.8
15:20 1016 30 845 24.95 12.6 54.6 60 5.1 41.2
15:25 1016 30 845 24.95 12.4 54.4 62 5.5 41.9
15:30 1016 30 845 24.95 12.8 55.1 61 5.6 42
15:35 1016 30 845 24.95 13.3 56 64 6.8 44.2
15:40 1016 30 845 24.95 13.6 56.4 62 6.5 43.7
15:45 1015 29.97 845 24.95 13.4 56.1 61 6.2 43.1
15:50 1015 29.97 844 24.92 13.4 56 63 6.5 43.7
15:55 1015 29.97 844 24.92 13.4 56 65 7 44.6
16:00 1015 29.97 844 24.92 13.4 56.1 60 5.8 42.5
16:05 1015 29.97 844 24.92 13.4 56.1 58 5.3 41.6
16:10 1015 29.97 844 24.92 13.7 56.6 60 6 42.9
16:15 1015 29.97 844 24.92 13.8 56.8 56 5.4 41.7
16:20 1015 29.97 844 24.92 14 57.1 54 5 40.9
16:25 1015 29.97 844 24.92 14.6 58.3 53 5.2 41.3
16:30 1015 29.97 844 24.92 15 58.9 53 5.5 42
16:35 1015 29.97 844 24.92 14.4 57.8 53 5 41
16:40 1014 29.94 844 24.92 14.8 58.6 51 4.9 40.8
16:45 1014 29.94 844 24.92 14.8 58.7 50 4.7 40.5
16:50 1014 29.94 844 24.92 15.5 60 47 4.4 39.9
16:55 1014 29.94 843 24.89 15.9 60.5 47 4.8 40.6
17:00 1014 29.94 843 24.89 15.5 59.8 49 4.8 40.7
17:05 1014 29.94 843 24.89 15.4 59.8 50 5 41.1
17:10 1014 29.94 843 24.89 15.4 59.7 49 4.8 40.6
17:15 1014 29.94 843 24.89 15.4 59.7 48 4.7 40.4
17:20 1014 29.94 843 24.89 15.3 59.5 49 4.8 40.6
17:25 1014 29.94 843 24.89 15.2 59.3 48 4.5 40
17:30 1014 29.94 843 24.89 15.6 60 45 3.8 38.8
17:35 1014 29.94 843 24.89 15.7 60.3 44 3.6 38.5
17:40 1014 29.94 843 24.89 16.2 61.2 43 3.8 38.9
17:45 1014 29.94 843 24.89 16.3 61.4 45 4.6 40.2
17:50 1014 29.94 843 24.89 16 60.7 48 5 40.9
17:55 1014 29.94 843 24.89 15.6 60.1 48 4.6 40.4
18:00 1014 29.94 843 24.89 15.5 59.9 47 4.4 40
18:05 1014 29.94 843 24.89 15.6 60 48 4.6 40.3
18:10 1014 29.94 843 24.89 15.7 60.2 50 5.2 41.4
18:15 1014 29.94 843 24.89 15.8 60.4 51 5.7 42.2
18:20 1014 29.94 843 24.89 15.5 59.9 52 5.7 42.3
18:25 1014 29.94 843 24.89 15.1 59.1 54 5.8 42.5
18:30 1013 29.91 843 24.89 14.7 58.4 54 5.7 42.2
18:35 1013 29.91 842 24.86 14.6 58.4 54 5.5 42
18:40 1013 29.91 842 24.86 14.4 58 55 5.7 42.2
18:45 1013 29.91 843 24.89 14.4 57.8 56 5.7 42.2
18:50 1013 29.91 843 24.89 14.5 58 56 5.8 42.5
18:55 1013 29.91 843 24.89 14.4 58 56 5.8 42.5
19:00 1014 29.94 843 24.89 14.3 57.7 56 5.8 42.4
19:05 1014 29.94 843 24.89 14.2 57.6 56 5.7 42.3
19:10 1014 29.94 843 24.89 14 57.1 58 5.8 42.4
19:15 1014 29.94 843 24.89 14 57.2 57 5.7 42.2
19:20 1015 29.97 844 24.92 14 57.2 57 5.6 42.2
19:25 1015 29.97 844 24.92 12.9 55.2 59 5.1 41.2
19:30 1015 29.97 845 24.95 11.9 53.4 61 4.8 40.6
19:35 1016 30 845 24.95 11.1 51.9 64 4.5 40.1
19:40 1016 30 845 24.95 10.6 51 65 4.3 39.8
19:45 1016 30 845 24.95 10.4 50.8 68 4.8 40.6
19:50 1016 30 846 24.98 9.9 49.8 70 4.7 40.5
19:55 1017 30.03 846 24.98 9.8 49.6 73 5.2 41.3
20:00 1017 30.03 846 24.98 9.1 48.4 78 5.4 41.8
20:05 1017 30.03 846 24.98 8.6 47.5 80 5.3 41.5
20:10 1017 30.03 846 24.98 8.7 47.7 79 5.3 41.5
20:15 1017 30.03 846 24.98 8.8 47.8 79 5.4 41.8
20:20 1016 30 846 24.98 8.5 47.4 83 5.7 42.3
20:25 1017 30.03 846 24.98 8.2 46.8 82 5.4 41.7
20:30 1017 30.03 846 24.98 8 46.4 84 5.5 41.8
20:35 1017 30.03 846 24.98 7.8 46.1 83 5.2 41.3
20:40 1017 30.03 846 24.98 7.9 46.2 83 5.2 41.4
20:45 1017 30.03 846 24.98 7.9 46.3 82 5.1 41.2
20:50 1017 30.03 846 24.98 8.1 46.7 83 5.5 41.8
20:55 1017 30.03 846 24.98 8.2 46.8 83 5.5 41.8
21:00 1017 30.03 846 24.98 8.3 46.9 81 5.3 41.5
21:05 1017 30.03 846 24.98 8.4 47.1 81 5.4 41.7
21:10 1017 30.03 846 24.98 8.5 47.3 80 5.2 41.3
21:15 1017 30.03 846 24.98 8.6 47.4 81 5.5 41.9
21:20 1017 30.03 846 24.98 8.5 47.3 84 6 42.7
21:25 1017 30.03 846 24.98 8.4 47.2 83 5.7 42.2
21:30 1017 30.03 846 24.98 8.5 47.4 82 5.6 42
21:35 1017 30.03 846 24.98 8.5 47.3 81 5.5 41.9
21:40 1016 30 846 24.98 8.6 47.4 82 5.7 42.2
21:45 1016 30 846 24.98 8.5 47.3 83 5.8 42.5
21:50 1016 30 846 24.98 8.3 47 82 5.5 41.9
21:55 1016 30 845 24.95 8.4 47.1 81 5.3 41.6
22:00 1016 30 845 24.95 8.4 47.2 81 5.4 41.6
22:05 1016 30 845 24.95 8.3 47 80 5.1 41.1
22:10 1016 30 845 24.95 8.4 47.2 80 5.1 41.2
22:15 1016 30 845 24.95 8.4 47 81 5.4 41.6
22:20 1016 30 845 24.95 8.1 46.5 81 5 41
22:25 1016 30 845 24.95 8.1 46.6 81 5.1 41.2
22:30 1016 30 845 24.95 8.2 46.7 81 5 41.1
22:35 1016 30 845 24.95 8.1 46.6 82 5.2 41.3
22:40 1016 30 845 24.95 8 46.4 82 5 41.1
22:45 1016 30 845 24.95 7.8 46.1 82 5 41
22:50 1016 30 845 24.95 7.6 45.7 83 4.9 40.7
22:55 1016 30 845 24.95 7.5 45.5 82 4.5 40.2
23:00 1016 30 845 24.95 7.6 45.7 79 4.3 39.7
23:05 1016 30 845 24.95 7.8 46 81 4.8 40.6
23:10 1016 30 845 24.95 7.6 45.7 82 4.7 40.5
23:15 1016 30 845 24.95 7.5 45.4 82 4.5 40.1
23:20 1016 30 845 24.95 7.6 45.7 80 4.4 39.9
23:25 1016 30 845 24.95 7.7 45.9 79 4.4 39.8
23:30 1016 30 845 24.95 7.9 46.2 79 4.4 39.9
23:35 1016 30 845 24.95 7.8 46.1 80 4.6 40.2
23:40 1016 30 845 24.95 7.7 45.8 82 4.8 40.6
23:45 1015 29.97 845 24.95 7.5 45.4 83 4.9 40.7
23:50 1015 29.97 845 24.95 7.4 45.4 82 4.6 40.3
23:55 1015 29.97 845 24.95 7.8 46 78 4.3 39.7
24:00 1015 29.97 845 24.95 7.9 46.3 80 4.7 40.5